Portada
METAR-TAF:

METAR-TAF

Aeroports :

Liberia, Costa Rica

latitud: 10-37N, longitud: 085-26W, altitud: 80 m

Observació

L'informe es va fer fa 58 minuts, a les 23:00 UTC
Vent 16 kt del Est/Nord-Est
Temperatura 32°C
Humitat 56%
Pressió 1006 hPa
Visibilitat 10 km o més
sense núvols per sota de 1500 mi sense presència de cumulonimbus.

METAR: MRLB 202300Z 07016KT CAVOK 32/22 A2972 NOSIG

Hora: 17:58 (23:58 UTC)

Pronòstic

L'informe es va fer fa 58 minuts, a les 23:00 UTC
Pronòstic vàlid del 21 a les 00 UTC al 21 a les 24 UTC
Vent 13 kt del Est
Visibilitat 10 km o més
Escasses núvols a una alçada de 4500 ft
Temporalment
l' 21 a les 08 UTC al 21 a les 13 UTC
Vent 3 kt del Nord-Est

TAF: MRLB 202300Z 2100/2124 08013KT 9999 FEW045 TX34/2119Z TN23/2111Z TEMPO 2108/2113 05003KT

Observacions i pronòstics meteorològics de més de 4000 aeroports (METAR i TAF).

Les estacions disponibles són els punts grocs i vermells al mapa.

Posi el ratolí al punt desitjat per veure el nom de l'estació.

Feu clic per veure les observacions i els pronòstics meteorològics.

Per canviar el mapa: feu clic els botons verds amb una creu de color negre per apropar; al botó verd amb un guió per allunyar la imatge; o en les fletxes verdes per a mapes adjacents.


METAR-TAF: